Kirishima Maru No.5 — JD2506 — position and weather

sailwx.info

Track history (hours):
 
Tides and Currents Weather Stations Pressure Air Temp Water Temp Dewpoint Dewpoint Depression Visibility Wind Speed Wind Dir Waves Ship Positions

Kirishima Maru No.5

Last reported at 2014-Oct-29 23:33 UTC. Time now 2014-Nov-01 01:14 UTC.
Position N 34°02' E 134°59'.

Length 105 m; draft 5.4 m.

Type: Tanker. MMSI: 431000338.

Date/timePositionNaut miles runAvg speedWind from/ knotsBaromVisibWave heightAir tempDewpointWater temp
2014-Oct-29 23:33N 34°02' E 134°59'1915.4
2014-Oct-29 22:18N 34°22' E 134°59'1115.2
2014-Oct-29 21:33N 34°33' E 135°03'3 0.1
2014-Oct-28 04:33N 34°35' E 135°04'1413.9
2014-Oct-28 03:33N 34°22' E 135°01'1414.4
2014-Oct-28 02:33N 34°07' E 134°59'  
2014-Oct-24 14:29N 35°05' E 139°44'1314.0
2014-Oct-24 13:33N 35°18' E 139°44'1312.8
2014-Oct-24 12:34N 35°30' E 139°47'2 0.2
2014-Oct-24 04:33N 35°30' E 139°45'8 7.6
2014-Oct-24 03:33N 35°23' E 139°45'1212.2
2014-Oct-24 02:33N 35°10' E 139°47'  
2014-Oct-20 19:17N 34°01' E 134°59'1115.0
2014-Oct-20 18:33N 34°12' E 134°58'1615.5
2014-Oct-20 17:33N 34°27' E 135°01'10 9.3
2014-Oct-20 16:29N 34°35' E 134°54'  
Track history (hours):
 
Tides and Currents Weather Stations Pressure Air Temp Water Temp Dewpoint Dewpoint Depression Visibility Wind Speed Wind Dir Waves Ship Positions

Kirishima Maru No.5

Last reported at 2014-Oct-29 23:33 UTC. Time now 2014-Nov-01 01:14 UTC.
Position N 34°02' E 134°59'.

Length 105 m; draft 5.4 m.

Type: Tanker. MMSI: 431000338.

Date/timePositionNaut miles runAvg speedWind from/ knotsBaromVisibWave heightAir tempDewpointWater temp
2014-Oct-29 23:33N 34°02' E 134°59'1915.4
2014-Oct-29 22:18N 34°22' E 134°59'1115.2
2014-Oct-29 21:33N 34°33' E 135°03'3 0.1
2014-Oct-28 04:33N 34°35' E 135°04'1413.9
2014-Oct-28 03:33N 34°22' E 135°01'1414.4
2014-Oct-28 02:33N 34°07' E 134°59'  
2014-Oct-24 14:29N 35°05' E 139°44'1314.0
2014-Oct-24 13:33N 35°18' E 139°44'1312.8
2014-Oct-24 12:34N 35°30' E 139°47'2 0.2
2014-Oct-24 04:33N 35°30' E 139°45'8 7.6
2014-Oct-24 03:33N 35°23' E 139°45'1212.2
2014-Oct-24 02:33N 35°10' E 139°47'  
2014-Oct-20 19:17N 34°01' E 134°59'1115.0
2014-Oct-20 18:33N 34°12' E 134°58'1615.5
2014-Oct-20 17:33N 34°27' E 135°01'10 9.3
2014-Oct-20 16:29N 34°35' E 134°54'  

Dump ship's entire track history